createdAt,value
2023-01-30T00:01:56.231Z,96140.25
2023-01-30T00:04:24.004Z,96129.06
2023-01-30T00:06:51.622Z,96128.31
2023-01-30T00:09:19.597Z,96120.38
2023-01-30T00:11:47.180Z,96122.13
2023-01-30T00:14:16.169Z,96112.19
2023-01-30T00:16:43.783Z,96109.84
2023-01-30T00:19:12.062Z,96109.19
2023-01-30T00:21:39.635Z,96110.94
2023-01-30T00:24:08.253Z,96113.94
2023-01-30T00:26:35.902Z,96114.03
2023-01-30T00:29:04.458Z,96107.09
2023-01-30T00:31:33.483Z,96093.69
2023-01-30T00:34:01.409Z,96084.31
2023-01-30T00:36:29.002Z,96068.44
2023-01-30T00:38:58.397Z,96065.41
2023-01-30T00:41:46.112Z,96057.75
2023-01-30T00:44:32.219Z,96051.41
2023-01-30T00:47:08.678Z,96044.88
2023-01-30T00:49:37.474Z,96037.75
2023-01-30T00:52:06.099Z,96032.97
2023-01-30T00:54:34.065Z,96038.69
2023-01-30T00:57:01.906Z,96041.59
2023-01-30T00:59:29.514Z,96054.63
2023-01-30T01:01:57.293Z,96037.53
2023-01-30T01:04:27.782Z,96043.50
2023-01-30T01:06:55.463Z,96042.28
2023-01-30T01:09:23.092Z,96052.41
2023-01-30T01:11:50.699Z,96049.59
2023-01-30T01:14:18.841Z,96048.28
2023-01-30T01:16:46.654Z,96045.03
2023-01-30T01:19:14.595Z,96040.78
2023-01-30T01:21:43.548Z,96031.09
2023-01-30T01:24:15.072Z,96037.09
2023-01-30T01:26:43.425Z,96032.13
2023-01-30T01:29:14.101Z,96040.41
2023-01-30T01:31:42.276Z,96036.50
2023-01-30T01:34:10.781Z,96034.31
2023-01-30T01:36:54.943Z,96020.75
2023-01-30T01:39:24.848Z,96015.97
2023-01-30T01:41:51.761Z,96006.75
2023-01-30T01:44:19.625Z,96014.09
2023-01-30T01:46:52.103Z,96002.53
2023-01-30T01:49:24.031Z,96002.31
2023-01-30T01:51:56.430Z,96007.25
2023-01-30T01:54:33.772Z,96013.91
2023-01-30T01:57:05.689Z,96029.97
2023-01-30T01:59:39.473Z,96037.63
2023-01-30T02:02:11.785Z,96043.47
2023-01-30T02:05:01.624Z,96046.78
2023-01-30T02:07:34.342Z,96044.56
2023-01-30T02:10:04.550Z,96050.28
2023-01-30T02:12:32.464Z,96051.88
2023-01-30T02:15:02.099Z,96057.81
2023-01-30T02:17:29.773Z,96047.38
2023-01-30T02:20:05.153Z,96052.81
2023-01-30T02:22:50.656Z,96061.63
2023-01-30T02:25:50.002Z,96054.50
2023-01-30T02:28:48.751Z,96063.72
2023-01-30T02:31:37.630Z,96064.47
2023-01-30T02:34:18.667Z,96052.47
2023-01-30T02:36:57.296Z,96059.25
2023-01-30T02:39:38.072Z,96069.72
2023-01-30T02:42:13.279Z,96087.84
2023-01-30T02:44:51.853Z,96085.91
2023-01-30T02:47:26.402Z,96078.78
2023-01-30T02:50:02.149Z,96085.00
2023-01-30T02:52:31.642Z,96085.34
2023-01-30T02:54:59.256Z,96075.19
2023-01-30T02:57:28.061Z,96062.78
2023-01-30T03:00:04.208Z,96060.50
2023-01-30T03:02:51.991Z,96057.41
2023-01-30T03:05:55.657Z,96045.63
2023-01-30T03:08:32.150Z,96030.72
2023-01-30T03:11:04.801Z,96034.53
2023-01-30T03:13:46.243Z,96037.09
2023-01-30T03:16:20.488Z,96045.41
2023-01-30T03:18:50.380Z,96056.16
2023-01-30T03:21:19.029Z,96058.19
2023-01-30T03:23:47.424Z,96050.53
2023-01-30T03:26:19.731Z,96038.38
2023-01-30T03:28:50.519Z,96029.66
2023-01-30T03:31:19.167Z,96042.88
2023-01-30T03:33:46.875Z,96043.41
2023-01-30T03:36:16.661Z,96042.56
2023-01-30T03:38:46.355Z,96039.69
2023-01-30T03:41:14.143Z,96037.53
2023-01-30T03:43:41.963Z,96033.91
2023-01-30T03:46:09.596Z,96029.88
2023-01-30T03:48:39.753Z,96032.03
2023-01-30T03:51:07.923Z,96036.19
2023-01-30T03:53:37.527Z,96022.22
2023-01-30T03:56:06.406Z,96043.16
2023-01-30T03:58:36.847Z,96040.44
2023-01-30T04:01:16.674Z,96042.50
2023-01-30T04:03:44.846Z,96043.34
2023-01-30T04:06:12.539Z,96047.38
2023-01-30T04:08:42.262Z,96042.53
2023-01-30T04:11:15.804Z,96050.19
2023-01-30T04:13:43.666Z,96051.19
2023-01-30T04:16:17.259Z,96053.00
2023-01-30T04:19:17.633Z,96033.41
2023-01-30T04:21:46.120Z,96032.47
2023-01-30T04:24:15.447Z,96032.25
2023-01-30T04:26:43.248Z,96026.13
2023-01-30T04:29:11.560Z,96025.13
2023-01-30T04:31:40.386Z,96016.81
2023-01-30T04:34:23.861Z,95986.91
2023-01-30T04:36:51.593Z,95977.47
2023-01-30T04:39:22.128Z,95985.84
2023-01-30T04:41:50.119Z,96012.69
2023-01-30T04:44:18.128Z,96018.28
2023-01-30T04:47:08.987Z,96011.16
2023-01-30T04:49:37.271Z,95993.03
2023-01-30T04:52:07.002Z,95986.59
2023-01-30T04:54:39.008Z,95983.91
2023-01-30T04:57:06.629Z,95974.81
2023-01-30T04:59:34.842Z,95970.53
2023-01-30T05:02:05.848Z,95982.03
2023-01-30T05:04:34.112Z,95974.81
2023-01-30T05:07:01.726Z,95967.75
2023-01-30T05:09:29.886Z,95969.41
2023-01-30T05:11:58.856Z,95974.81
2023-01-30T05:14:26.691Z,95978.94
2023-01-30T05:16:54.340Z,95971.91
2023-01-30T05:19:22.555Z,95984.94
2023-01-30T05:21:50.163Z,95989.28
2023-01-30T05:24:18.304Z,95996.41
2023-01-30T05:26:45.903Z,96007.38
2023-01-30T05:29:14.862Z,96007.47
2023-01-30T05:31:42.502Z,95990.41
2023-01-30T05:34:13.080Z,95983.69
2023-01-30T05:36:40.711Z,95985.34
2023-01-30T05:39:09.268Z,95986.59
2023-01-30T05:41:37.211Z,95978.31
2023-01-30T05:44:05.455Z,95979.34
2023-01-30T05:46:34.398Z,95977.16
2023-01-30T05:49:04.126Z,95966.59
2023-01-30T05:51:31.939Z,95969.94
2023-01-30T05:53:59.926Z,95977.88
2023-01-30T05:56:27.533Z,95961.72
2023-01-30T05:58:57.269Z,95958.31
2023-01-30T06:01:25.213Z,95952.41
2023-01-30T06:03:54.900Z,95962.34
2023-01-30T06:06:23.587Z,95953.34
2023-01-30T06:08:54.736Z,95958.50
2023-01-30T06:11:22.719Z,95962.16
2023-01-30T06:13:51.120Z,95963.38
2023-01-30T06:16:19.608Z,95957.00
2023-01-30T06:18:48.257Z,95961.13
2023-01-30T06:21:17.631Z,95973.97
2023-01-30T06:23:46.685Z,95975.81
2023-01-30T06:26:14.510Z,95978.59
2023-01-30T06:28:42.916Z,95969.13
2023-01-30T06:31:10.751Z,95973.34
2023-01-30T06:33:38.464Z,95987.84
2023-01-30T06:36:06.844Z,95979.97
2023-01-30T06:38:35.777Z,95982.88
2023-01-30T06:41:03.748Z,95983.91
2023-01-30T06:43:31.317Z,95978.72
2023-01-30T06:46:00.062Z,95989.06
2023-01-30T06:48:27.999Z,95989.97
2023-01-30T06:50:55.917Z,95997.16
2023-01-30T06:53:30.055Z,96000.00
2023-01-30T06:55:59.541Z,96008.56
2023-01-30T06:58:27.231Z,96000.88
2023-01-30T07:00:55.207Z,96017.66
2023-01-30T07:03:22.805Z,96014.75
2023-01-30T07:05:50.753Z,95999.97
2023-01-30T07:08:18.405Z,95997.16
2023-01-30T07:10:46.108Z,95996.53
2023-01-30T07:13:15.502Z,95998.56
2023-01-30T07:15:43.102Z,95995.34
2023-01-30T07:18:10.694Z,95999.81
2023-01-30T07:20:38.289Z,96001.88
2023-01-30T07:23:05.939Z,96013.09
2023-01-30T07:25:34.283Z,96007.69
2023-01-30T07:28:03.402Z,95999.94
2023-01-30T07:30:36.597Z,96000.75
2023-01-30T07:33:06.273Z,96009.28
2023-01-30T07:35:36.546Z,96004.81
2023-01-30T07:38:04.550Z,95993.47
2023-01-30T07:40:32.263Z,95994.41
2023-01-30T07:43:01.889Z,95991.06
2023-01-30T07:45:37.053Z,95990.59
2023-01-30T07:48:04.881Z,95984.56
2023-01-30T07:50:32.489Z,95986.22
2023-01-30T07:53:00.176Z,95977.09
2023-01-30T07:55:28.450Z,95989.88
2023-01-30T07:57:56.326Z,95983.75
2023-01-30T08:00:24.208Z,95980.75
2023-01-30T08:02:53.118Z,96000.53
2023-01-30T08:05:21.591Z,95982.06
2023-01-30T08:07:49.382Z,95979.41
2023-01-30T08:10:18.146Z,95974.66
2023-01-30T08:12:46.370Z,95988.63
2023-01-30T08:15:14.176Z,95981.59
2023-01-30T08:17:42.078Z,95964.78
2023-01-30T08:20:16.868Z,95965.53
2023-01-30T08:22:45.102Z,95960.84
2023-01-30T08:25:12.750Z,95957.75
2023-01-30T08:27:40.692Z,95951.38
2023-01-30T08:30:09.705Z,95965.41
2023-01-30T08:32:37.666Z,95975.47
2023-01-30T08:35:05.782Z,95972.63
2023-01-30T08:37:34.719Z,95962.25
2023-01-30T08:40:02.409Z,95958.72
2023-01-30T08:42:30.470Z,95947.13
2023-01-30T08:44:58.074Z,95944.06
2023-01-30T08:47:26.450Z,95941.91
2023-01-30T08:49:54.065Z,95927.28
2023-01-30T08:52:22.547Z,95915.94
2023-01-30T08:54:51.454Z,95924.69
2023-01-30T08:57:20.408Z,95927.53
2023-01-30T08:59:48.062Z,95931.31
2023-01-30T09:02:15.701Z,95937.22
2023-01-30T09:04:43.373Z,95934.84
2023-01-30T09:07:11.332Z,95928.69
2023-01-30T09:09:38.942Z,95920.16
2023-01-30T09:12:08.433Z,95912.88
2023-01-30T09:14:36.018Z,95918.53
2023-01-30T09:17:04.421Z,95903.09
2023-01-30T09:19:32.087Z,95918.78
2023-01-30T09:22:00.303Z,95923.25
2023-01-30T09:24:27.933Z,95925.78
2023-01-30T09:26:57.836Z,95937.28
2023-01-30T09:29:27.609Z,95921.03
2023-01-30T09:31:56.462Z,95914.66
2023-01-30T09:34:27.427Z,95915.84
2023-01-30T09:36:55.460Z,95919.63
2023-01-30T09:39:23.035Z,95919.31
2023-01-30T09:42:11.111Z,95896.94
2023-01-30T09:45:27.044Z,95889.47
2023-01-30T09:48:03.809Z,95879.31
2023-01-30T09:51:13.118Z,95876.19
2023-01-30T09:54:01.280Z,95888.59
2023-01-30T09:56:28.995Z,95904.94
2023-01-30T09:58:58.983Z,95897.09
2023-01-30T10:01:35.258Z,95883.03
2023-01-30T10:04:10.774Z,95850.88
2023-01-30T10:06:46.609Z,95880.00
2023-01-30T10:09:24.589Z,95866.38
2023-01-30T10:12:05.239Z,95874.53
2023-01-30T10:14:58.226Z,95863.72
2023-01-30T10:17:37.558Z,95858.13
2023-01-30T10:20:31.431Z,95853.19
2023-01-30T10:23:21.123Z,95831.56
2023-01-30T10:25:53.629Z,95810.19
2023-01-30T10:28:27.390Z,95816.56
2023-01-30T10:31:01.656Z,95824.47
2023-01-30T10:33:34.339Z,95811.31
2023-01-30T10:36:08.088Z,95819.19
2023-01-30T10:38:41.207Z,95820.97
2023-01-30T10:41:16.808Z,95838.53
2023-01-30T10:43:48.740Z,95844.94
2023-01-30T10:46:31.619Z,95825.41
2023-01-30T10:49:06.194Z,95823.25
2023-01-30T10:51:48.030Z,95824.03
2023-01-30T10:54:21.751Z,95805.69
2023-01-30T10:56:58.898Z,95815.78
2023-01-30T10:59:40.854Z,95786.81
2023-01-30T11:02:24.075Z,95785.81
2023-01-30T11:04:59.349Z,95781.50
2023-01-30T11:07:30.804Z,95793.00
2023-01-30T11:10:00.197Z,95783.88
2023-01-30T11:12:27.865Z,95790.38
2023-01-30T11:15:00.836Z,95792.84
2023-01-30T11:17:35.260Z,95782.69
2023-01-30T11:20:13.364Z,95772.28
2023-01-30T11:22:47.553Z,95790.50
2023-01-30T11:25:18.372Z,95776.06
2023-01-30T11:27:54.022Z,95780.44
2023-01-30T11:30:23.549Z,95766.00
2023-01-30T11:32:51.602Z,95771.31
2023-01-30T11:35:29.633Z,95762.03
2023-01-30T11:38:12.987Z,95778.41
2023-01-30T11:40:41.415Z,95777.13
2023-01-30T11:43:13.474Z,95777.03
2023-01-30T11:45:45.700Z,95776.31
2023-01-30T11:48:33.362Z,95763.38
2023-01-30T11:51:08.368Z,95790.03
2023-01-30T11:53:41.233Z,95771.94
2023-01-30T11:56:15.795Z,95765.88
2023-01-30T11:58:47.052Z,95768.94
2023-01-30T12:01:16.175Z,95760.16
2023-01-30T12:03:48.726Z,95744.94
2023-01-30T12:06:25.724Z,95739.66
2023-01-30T12:08:55.472Z,95735.69
2023-01-30T12:11:29.740Z,95753.81
2023-01-30T12:14:14.306Z,95742.44
2023-01-30T12:16:51.439Z,95734.66
2023-01-30T12:19:32.225Z,95729.31
2023-01-30T12:22:08.473Z,95739.59
2023-01-30T12:24:42.278Z,95717.81
2023-01-30T12:27:17.332Z,95709.47
2023-01-30T12:29:56.371Z,95723.75
2023-01-30T12:32:28.796Z,95714.03
2023-01-30T12:34:57.316Z,95712.94
2023-01-30T12:37:39.641Z,95698.69
2023-01-30T12:40:18.732Z,95689.75
2023-01-30T12:43:09.133Z,95686.19
2023-01-30T12:45:44.825Z,95680.13
2023-01-30T12:48:48.356Z,95683.72
2023-01-30T12:51:33.722Z,95676.84
2023-01-30T12:54:14.659Z,95674.63
2023-01-30T12:56:59.056Z,95656.53
2023-01-30T12:59:36.027Z,95665.59
2023-01-30T13:02:35.876Z,95657.50
2023-01-30T13:05:21.517Z,95648.72
2023-01-30T13:08:04.193Z,95656.25
2023-01-30T13:10:39.239Z,95653.53
2023-01-30T13:13:15.644Z,95663.16
2023-01-30T13:15:52.380Z,95655.03
2023-01-30T13:18:26.778Z,95666.16
2023-01-30T13:21:03.201Z,95683.03
2023-01-30T13:23:42.772Z,95677.81
2023-01-30T13:26:15.118Z,95671.09
2023-01-30T13:28:46.490Z,95671.88
2023-01-30T13:31:21.531Z,95667.78
2023-01-30T13:33:53.511Z,95680.66
2023-01-30T13:36:27.332Z,95692.63
2023-01-30T13:39:00.651Z,95690.28
2023-01-30T13:41:36.599Z,95700.44
2023-01-30T13:44:16.317Z,95704.06
2023-01-30T13:46:45.316Z,95696.44
2023-01-30T13:49:21.956Z,95706.44
2023-01-30T13:51:54.058Z,95724.00
2023-01-30T13:54:37.742Z,95722.50
2023-01-30T13:57:20.808Z,95720.31
2023-01-30T14:00:10.677Z,95722.75
2023-01-30T14:03:22.986Z,95723.97
2023-01-30T14:06:02.569Z,95722.38
2023-01-30T14:08:33.500Z,95723.97
2023-01-30T14:11:01.392Z,95738.66
2023-01-30T14:13:31.407Z,95744.44
2023-01-30T14:16:02.808Z,95731.00
2023-01-30T14:18:33.987Z,95735.28
2023-01-30T14:21:15.982Z,95755.00
2023-01-30T14:23:56.130Z,95759.81
2023-01-30T14:27:02.681Z,95766.25
2023-01-30T14:29:54.343Z,95750.38
2023-01-30T14:32:54.403Z,95771.72
2023-01-30T14:35:27.257Z,95771.78
2023-01-30T14:38:13.588Z,95772.19
2023-01-30T14:40:49.032Z,95777.38
2023-01-30T14:43:37.680Z,95793.47
2023-01-30T14:46:09.044Z,95803.53
2023-01-30T14:48:44.468Z,95800.78
2023-01-30T14:51:20.106Z,95801.38
2023-01-30T14:53:55.082Z,95805.75
2023-01-30T14:56:41.103Z,95808.91
2023-01-30T14:59:18.006Z,95811.69
2023-01-30T15:02:07.810Z,95821.81
2023-01-30T15:04:44.501Z,95830.97
2023-01-30T15:07:16.089Z,95830.28
2023-01-30T15:09:51.146Z,95839.97
2023-01-30T15:12:56.125Z,95839.94
2023-01-30T15:15:31.317Z,95847.66
2023-01-30T15:18:24.154Z,95839.47
2023-01-30T15:21:15.532Z,95852.22
2023-01-30T15:23:57.931Z,95861.28
2023-01-30T15:26:34.806Z,95867.13
2023-01-30T15:29:27.755Z,95880.41
2023-01-30T15:31:56.454Z,95889.78
2023-01-30T15:34:29.068Z,95886.19
2023-01-30T15:36:57.494Z,95895.69
2023-01-30T15:39:27.327Z,95885.97
2023-01-30T15:42:08.858Z,95903.31
2023-01-30T15:44:54.820Z,95904.53
2023-01-30T15:47:42.543Z,95918.59
2023-01-30T15:50:12.379Z,95918.78
2023-01-30T15:52:45.431Z,95936.25
2023-01-30T15:55:18.661Z,95938.94
2023-01-30T15:57:51.206Z,95942.63
2023-01-30T16:00:27.680Z,95958.75
2023-01-30T16:02:56.483Z,95944.59
2023-01-30T16:05:27.077Z,95955.22
2023-01-30T16:07:56.835Z,95961.00
2023-01-30T16:10:26.612Z,95977.22
2023-01-30T16:12:57.419Z,95974.78
2023-01-30T16:15:29.430Z,95978.59
2023-01-30T16:18:05.419Z,95971.22
2023-01-30T16:20:58.994Z,95971.53
2023-01-30T16:23:32.371Z,95971.09
2023-01-30T16:26:00.900Z,95968.44
2023-01-30T16:28:32.034Z,95993.75
2023-01-30T16:31:02.217Z,95983.63
2023-01-30T16:33:36.014Z,95988.78
2023-01-30T16:36:08.015Z,95982.25
2023-01-30T16:38:43.376Z,96000.91
2023-01-30T16:41:33.749Z,95996.94
2023-01-30T16:44:23.886Z,95990.97
2023-01-30T16:46:57.731Z,96001.47
2023-01-30T16:49:38.531Z,96006.63
2023-01-30T16:52:16.825Z,96013.13
2023-01-30T16:54:47.737Z,96003.06
2023-01-30T16:57:28.733Z,96003.94
2023-01-30T16:59:56.586Z,96007.06
2023-01-30T17:02:29.984Z,95996.50
2023-01-30T17:05:16.047Z,96017.25
2023-01-30T17:07:45.702Z,96004.84
2023-01-30T17:10:46.747Z,96004.41
2023-01-30T17:13:31.968Z,96033.25
2023-01-30T17:16:31.542Z,96015.16
2023-01-30T17:18:59.879Z,96013.97
2023-01-30T17:21:31.347Z,96014.41
2023-01-30T17:24:02.979Z,96020.06
2023-01-30T17:26:32.020Z,96010.66
2023-01-30T17:29:00.788Z,96007.97
2023-01-30T17:31:28.487Z,96031.41
2023-01-30T17:33:56.767Z,96021.16
2023-01-30T17:36:27.843Z,96017.03
2023-01-30T17:38:56.463Z,96025.47
2023-01-30T17:41:28.477Z,96044.75
2023-01-30T17:43:56.656Z,96042.13
2023-01-30T17:46:28.254Z,96043.63
2023-01-30T17:48:56.749Z,96056.50
2023-01-30T17:51:24.396Z,96061.88
2023-01-30T17:53:52.212Z,96055.78
2023-01-30T17:56:24.168Z,96075.66
2023-01-30T17:58:53.562Z,96070.47
2023-01-30T18:01:21.148Z,96068.78
2023-01-30T18:03:49.059Z,96067.63
2023-01-30T18:06:17.280Z,96080.63
2023-01-30T18:08:45.283Z,96086.44
2023-01-30T18:11:14.775Z,96086.78
2023-01-30T18:13:47.248Z,96076.59
2023-01-30T18:16:26.363Z,96087.00
2023-01-30T18:18:54.808Z,96083.47
2023-01-30T18:21:23.003Z,96081.59
2023-01-30T18:23:50.942Z,96089.38
2023-01-30T18:26:19.845Z,96090.13
2023-01-30T18:28:48.239Z,96095.28
2023-01-30T18:31:18.147Z,96099.78
2023-01-30T18:33:45.789Z,96095.78
2023-01-30T18:36:15.487Z,96090.00
2023-01-30T18:38:43.266Z,96103.47
2023-01-30T18:41:14.237Z,96099.69
2023-01-30T18:43:42.464Z,96110.19
2023-01-30T18:46:12.998Z,96112.81
2023-01-30T18:48:42.456Z,96120.81
2023-01-30T18:51:12.965Z,96114.47
2023-01-30T18:53:40.731Z,96115.97
2023-01-30T18:56:09.628Z,96122.06
2023-01-30T18:58:37.329Z,96126.53
2023-01-30T19:01:11.560Z,96119.59
2023-01-30T19:03:39.365Z,96129.16
2023-01-30T19:06:11.738Z,96130.53
2023-01-30T19:08:39.543Z,96136.19
2023-01-30T19:11:22.411Z,96132.47
2023-01-30T19:13:50.018Z,96149.44
2023-01-30T19:16:19.382Z,96146.31
2023-01-30T19:18:47.092Z,96141.31
2023-01-30T19:21:16.493Z,96154.66
2023-01-30T19:23:44.761Z,96154.56
2023-01-30T19:26:13.494Z,96168.84
2023-01-30T19:28:44.502Z,96159.53
2023-01-30T19:31:14.930Z,96161.78
2023-01-30T19:33:43.345Z,96167.69
2023-01-30T19:36:12.822Z,96168.88
2023-01-30T19:38:42.696Z,96171.09
2023-01-30T19:41:12.330Z,96185.09
2023-01-30T19:43:40.858Z,96187.59
2023-01-30T19:46:11.096Z,96205.31
2023-01-30T19:48:39.274Z,96202.84
2023-01-30T19:51:18.159Z,96204.88
2023-01-30T19:53:52.687Z,96201.31
2023-01-30T19:56:22.492Z,96201.19
2023-01-30T19:58:51.609Z,96221.88
2023-01-30T20:01:20.893Z,96216.22
2023-01-30T20:03:49.372Z,96217.06
2023-01-30T20:06:18.817Z,96232.06
2023-01-30T20:08:50.236Z,96215.50
2023-01-30T20:11:20.998Z,96223.66
2023-01-30T20:13:49.470Z,96235.84
2023-01-30T20:16:21.004Z,96246.50
2023-01-30T20:18:49.944Z,96242.72
2023-01-30T20:21:19.420Z,96256.19
2023-01-30T20:23:49.204Z,96255.34
2023-01-30T20:26:19.659Z,96251.41
2023-01-30T20:28:47.379Z,96255.13
2023-01-30T20:31:18.153Z,96255.47
2023-01-30T20:33:45.904Z,96259.53
2023-01-30T20:36:15.906Z,96253.38
2023-01-30T20:38:44.988Z,96255.50
2023-01-30T20:41:17.103Z,96264.63
2023-01-30T20:43:48.980Z,96252.78
2023-01-30T20:46:18.614Z,96252.19
2023-01-30T20:48:47.294Z,96248.63
2023-01-30T20:51:16.755Z,96246.75
2023-01-30T20:53:48.404Z,96246.13
2023-01-30T20:56:17.836Z,96242.75
2023-01-30T20:58:45.783Z,96248.53
2023-01-30T21:01:17.944Z,96244.25
2023-01-30T21:03:48.002Z,96226.00
2023-01-30T21:06:42.643Z,96226.38
2023-01-30T21:09:04.682Z,96232.84
2023-01-30T21:11:34.797Z,96237.25
2023-01-30T21:14:02.405Z,96229.94
2023-01-30T21:16:31.811Z,96224.72
2023-01-30T21:19:02.333Z,96239.16
2023-01-30T21:21:33.554Z,96232.31
2023-01-30T21:24:03.552Z,96228.03
2023-01-30T21:26:35.377Z,96240.34
2023-01-30T21:29:04.016Z,96240.09
2023-01-30T21:31:34.307Z,96249.34
2023-01-30T21:34:02.657Z,96241.19
2023-01-30T21:36:30.609Z,96247.22
2023-01-30T21:39:16.113Z,96243.44
2023-01-30T21:42:04.443Z,96256.22
2023-01-30T21:44:33.853Z,96242.03
2023-01-30T21:47:01.596Z,96253.59
2023-01-30T21:49:29.225Z,96245.56
2023-01-30T21:51:57.237Z,96247.22
2023-01-30T21:54:25.535Z,96254.06
2023-01-30T21:56:55.687Z,96247.69
2023-01-30T21:59:23.319Z,96248.63
2023-01-30T22:01:51.608Z,96278.00
2023-01-30T22:04:19.568Z,96282.03
2023-01-30T22:06:47.153Z,96283.91
2023-01-30T22:09:17.164Z,96280.13
2023-01-30T22:11:44.946Z,96286.72
2023-01-30T22:14:14.713Z,96300.56
2023-01-30T22:16:42.697Z,96300.00
2023-01-30T22:19:11.535Z,96291.34
2023-01-30T22:21:40.639Z,96286.28
2023-01-30T22:24:11.600Z,96296.44
2023-01-30T22:26:39.726Z,96300.00
2023-01-30T22:29:07.691Z,96292.31
2023-01-30T22:31:40.390Z,96291.22
2023-01-30T22:34:08.912Z,96286.53
2023-01-30T22:36:37.537Z,96289.00
2023-01-30T22:39:06.234Z,96291.47
2023-01-30T22:41:36.233Z,96295.03
2023-01-30T22:44:07.302Z,96293.13
2023-01-30T22:46:38.571Z,96303.31
2023-01-30T22:49:08.268Z,96301.66
2023-01-30T22:51:37.574Z,96304.03
2023-01-30T22:54:07.029Z,96292.41
2023-01-30T22:56:37.341Z,96291.84
2023-01-30T22:59:05.788Z,96284.88
2023-01-30T23:01:37.251Z,96276.94
2023-01-30T23:04:07.296Z,96294.06
2023-01-30T23:06:36.799Z,96291.94
2023-01-30T23:09:05.699Z,96272.31
2023-01-30T23:11:35.725Z,96294.53
2023-01-30T23:14:07.684Z,96291.72
2023-01-30T23:16:39.198Z,96296.63
2023-01-30T23:19:07.227Z,96299.28
2023-01-30T23:21:38.037Z,96300.22
2023-01-30T23:24:08.643Z,96293.75
2023-01-30T23:26:39.178Z,96300.25
2023-01-30T23:29:09.087Z,96301.66
2023-01-30T23:31:38.946Z,96294.09
2023-01-30T23:34:08.451Z,96301.94
2023-01-30T23:36:36.554Z,96293.63
2023-01-30T23:39:05.406Z,96290.28
2023-01-30T23:41:35.331Z,96291.94
2023-01-30T23:44:03.717Z,96282.72
2023-01-30T23:46:33.352Z,96303.31
2023-01-30T23:49:04.103Z,96310.94
2023-01-30T23:51:34.159Z,96290.19
2023-01-30T23:54:02.494Z,96298.97
2023-01-30T23:56:31.917Z,96295.63
2023-01-30T23:59:00.439Z,96286.84
